createdAt,value
2024-02-21T00:00:03.899Z,608.05
2024-02-21T00:02:30.263Z,604.47
2024-02-21T00:04:56.717Z,603.90
2024-02-21T00:07:23.816Z,631.85
2024-02-21T00:09:50.290Z,603.30
2024-02-21T00:12:16.833Z,599.58
2024-02-21T00:14:43.267Z,623.03
2024-02-21T00:17:09.640Z,596.20
2024-02-21T00:19:36.570Z,593.78
2024-02-21T00:22:02.993Z,627.95
2024-02-21T00:24:29.346Z,601.00
2024-02-21T00:26:55.828Z,607.63
2024-02-21T00:29:22.250Z,604.20
2024-02-21T00:31:50.330Z,600.58
2024-02-21T00:34:17.033Z,606.03
2024-02-21T00:36:43.569Z,609.38
2024-02-21T00:39:10.097Z,642.95
2024-02-21T00:41:36.499Z,612.17
2024-02-21T00:44:03.024Z,601.75
2024-02-21T00:46:29.860Z,608.75
2024-02-21T00:48:56.319Z,602.92
2024-02-21T00:51:22.725Z,609.00
2024-02-21T00:53:49.129Z,638.15
2024-02-21T00:56:15.499Z,606.97
2024-02-21T00:58:42.034Z,589.90
2024-02-21T01:01:08.522Z,608.83
2024-02-21T01:03:34.933Z,616.03
2024-02-21T01:06:01.407Z,631.30
2024-02-21T01:08:27.843Z,599.38
2024-02-21T01:10:54.311Z,599.95
2024-02-21T01:13:20.792Z,631.35
2024-02-21T01:15:47.285Z,605.08
2024-02-21T01:18:13.771Z,605.63
2024-02-21T01:20:40.237Z,632.22
2024-02-21T01:23:06.629Z,603.05
2024-02-21T01:25:33.148Z,606.15
2024-02-21T01:27:59.558Z,633.40
2024-02-21T01:30:25.941Z,631.00
2024-02-21T01:32:52.327Z,606.60
2024-02-21T01:35:19.407Z,605.90
2024-02-21T01:37:45.982Z,606.38
2024-02-21T01:40:12.851Z,604.95
2024-02-21T01:42:40.829Z,635.15
2024-02-21T01:45:07.459Z,601.67
2024-02-21T01:47:34.227Z,605.42
2024-02-21T01:50:00.915Z,600.45
2024-02-21T01:52:27.444Z,597.13
2024-02-21T01:54:53.880Z,629.83
2024-02-21T01:57:20.314Z,635.60
2024-02-21T01:59:47.359Z,605.00
2024-02-21T02:02:14.514Z,609.20
2024-02-21T02:04:41.126Z,619.47
2024-02-21T02:07:08.000Z,585.67
2024-02-21T02:09:34.904Z,585.00
2024-02-21T02:12:01.629Z,591.75
2024-02-21T02:14:28.101Z,584.10
2024-02-21T02:16:54.508Z,610.22
2024-02-21T02:19:21.162Z,592.10
2024-02-21T02:21:54.516Z,592.65
2024-02-21T02:24:21.519Z,612.38
2024-02-21T02:26:47.917Z,587.80
2024-02-21T02:29:14.320Z,585.25
2024-02-21T02:31:41.139Z,584.80
2024-02-21T02:34:07.671Z,583.25
2024-02-21T02:36:34.894Z,612.55
2024-02-21T02:39:01.304Z,585.00
2024-02-21T02:41:27.832Z,585.60
2024-02-21T02:43:54.308Z,615.10
2024-02-21T02:46:20.829Z,590.75
2024-02-21T02:48:47.343Z,617.22
2024-02-21T02:51:13.772Z,617.97
2024-02-21T02:53:40.184Z,585.30
2024-02-21T02:56:06.646Z,588.10
2024-02-21T02:58:33.149Z,612.88
2024-02-21T03:00:59.552Z,586.78
2024-02-21T03:03:26.023Z,616.17
2024-02-21T03:05:52.453Z,581.30
2024-02-21T03:08:18.920Z,580.55
2024-02-21T03:10:45.595Z,578.78
2024-02-21T03:13:12.186Z,610.08
2024-02-21T03:15:38.656Z,612.83
2024-02-21T03:18:05.254Z,609.72
2024-02-21T03:20:31.686Z,583.28
2024-02-21T03:22:58.153Z,583.40
2024-02-21T03:25:24.619Z,578.05
2024-02-21T03:27:51.050Z,591.67
2024-02-21T03:30:17.511Z,605.35
2024-02-21T03:32:43.917Z,603.55
2024-02-21T03:35:10.662Z,600.92
2024-02-21T03:37:37.099Z,604.47
2024-02-21T03:40:04.067Z,599.67
2024-02-21T03:42:32.541Z,594.67
2024-02-21T03:45:01.908Z,598.45
2024-02-21T03:47:28.359Z,602.10
2024-02-21T03:49:54.899Z,630.08
2024-02-21T03:52:21.542Z,602.15
2024-02-21T03:54:47.935Z,621.63
2024-02-21T03:57:14.331Z,597.40
2024-02-21T03:59:44.442Z,597.80
2024-02-21T04:02:11.419Z,596.92
2024-02-21T04:04:41.152Z,601.97
2024-02-21T04:07:07.973Z,600.70
2024-02-21T04:09:34.693Z,597.75
2024-02-21T04:12:01.838Z,590.08
2024-02-21T04:14:28.233Z,593.75
2024-02-21T04:16:54.864Z,593.28
2024-02-21T04:19:21.491Z,590.17
2024-02-21T04:21:47.979Z,610.05
2024-02-21T04:24:14.324Z,570.53
2024-02-21T04:26:41.673Z,579.28
2024-02-21T04:29:08.653Z,607.47
2024-02-21T04:31:35.479Z,606.88
2024-02-21T04:34:02.010Z,579.63
2024-02-21T04:36:28.456Z,575.15
2024-02-21T04:38:54.830Z,586.83
2024-02-21T04:41:21.273Z,609.70
2024-02-21T04:43:49.055Z,580.05
2024-02-21T04:46:16.609Z,607.95
2024-02-21T04:48:43.018Z,566.50
2024-02-21T04:51:09.482Z,593.80
2024-02-21T04:53:35.942Z,565.75
2024-02-21T04:56:02.537Z,591.63
2024-02-21T04:58:29.127Z,565.78
2024-02-21T05:00:56.267Z,570.00
2024-02-21T05:03:23.068Z,560.53
2024-02-21T05:05:49.794Z,566.92
2024-02-21T05:08:16.477Z,561.00
2024-02-21T05:10:43.474Z,589.42
2024-02-21T05:13:10.170Z,562.65
2024-02-21T05:15:36.603Z,558.65
2024-02-21T05:18:03.435Z,556.72
2024-02-21T05:20:29.928Z,558.22
2024-02-21T05:22:56.520Z,559.70
2024-02-21T05:25:22.998Z,558.75
2024-02-21T05:27:53.359Z,562.42
2024-02-21T05:30:19.793Z,559.13
2024-02-21T05:32:46.214Z,581.60
2024-02-21T05:35:12.703Z,576.63
2024-02-21T05:37:39.697Z,579.92
2024-02-21T05:40:06.443Z,559.80
2024-02-21T05:42:33.336Z,559.55
2024-02-21T05:44:59.834Z,554.38
2024-02-21T05:47:26.344Z,586.22
2024-02-21T05:49:55.426Z,562.15
2024-02-21T05:52:21.974Z,561.45
2024-02-21T05:54:50.883Z,564.15
2024-02-21T05:57:21.180Z,580.17
2024-02-21T05:59:47.616Z,585.90
2024-02-21T06:02:14.435Z,564.45
2024-02-21T06:04:41.295Z,559.47
2024-02-21T06:07:07.864Z,556.63
2024-02-21T06:09:34.360Z,558.28
2024-02-21T06:12:00.817Z,558.70
2024-02-21T06:14:27.237Z,564.45
2024-02-21T06:16:53.681Z,561.10
2024-02-21T06:19:20.235Z,558.70
2024-02-21T06:21:46.794Z,558.30
2024-02-21T06:24:13.802Z,583.38
2024-02-21T06:26:41.456Z,557.47
2024-02-21T06:29:07.859Z,557.95
2024-02-21T06:31:34.821Z,551.42
2024-02-21T06:34:01.555Z,554.28
2024-02-21T06:36:28.008Z,556.90
2024-02-21T06:38:54.586Z,560.13
2024-02-21T06:41:21.163Z,560.55
2024-02-21T06:43:48.534Z,567.67
2024-02-21T06:46:29.577Z,581.97
2024-02-21T06:48:58.075Z,559.13
2024-02-21T06:51:26.180Z,551.97
2024-02-21T06:53:52.796Z,555.63
2024-02-21T06:56:19.319Z,561.70
2024-02-21T06:58:45.784Z,549.35
2024-02-21T07:01:12.565Z,551.00
2024-02-21T07:03:39.189Z,553.33
2024-02-21T07:06:05.958Z,558.70
2024-02-21T07:08:32.543Z,553.67
2024-02-21T07:10:59.075Z,558.42
2024-02-21T07:13:25.596Z,557.28
2024-02-21T07:15:52.024Z,581.13
2024-02-21T07:18:18.577Z,580.58
2024-02-21T07:20:45.076Z,566.90
2024-02-21T07:23:11.500Z,561.53
2024-02-21T07:25:37.973Z,560.08
2024-02-21T07:28:04.613Z,583.95
2024-02-21T07:30:31.074Z,555.92
2024-02-21T07:32:57.540Z,561.25
2024-02-21T07:35:24.053Z,585.55
2024-02-21T07:37:50.560Z,561.10
2024-02-21T07:40:17.761Z,565.22
2024-02-21T07:42:46.929Z,588.03
2024-02-21T07:45:15.259Z,561.33
2024-02-21T07:47:41.701Z,563.33
2024-02-21T07:50:08.641Z,566.78
2024-02-21T07:52:35.275Z,585.67
2024-02-21T07:55:01.755Z,566.88
2024-02-21T07:57:28.168Z,588.85
2024-02-21T07:59:55.124Z,565.90
2024-02-21T08:02:24.321Z,568.10
2024-02-21T08:04:50.897Z,570.28
2024-02-21T08:07:17.446Z,569.38
2024-02-21T08:09:43.850Z,591.10
2024-02-21T08:12:10.342Z,562.65
2024-02-21T08:14:37.977Z,573.33
2024-02-21T08:17:05.110Z,574.42
2024-02-21T08:19:31.803Z,598.15
2024-02-21T08:21:58.262Z,599.95
2024-02-21T08:24:24.698Z,596.28
2024-02-21T08:26:51.148Z,572.75
2024-02-21T08:29:17.643Z,578.72
2024-02-21T08:31:44.128Z,579.40
2024-02-21T08:34:10.623Z,596.58
2024-02-21T08:36:37.445Z,573.47
2024-02-21T08:39:07.311Z,598.53
2024-02-21T08:41:47.351Z,599.17
2024-02-21T08:44:20.520Z,598.72
2024-02-21T08:46:48.413Z,578.20
2024-02-21T08:49:15.022Z,585.40
2024-02-21T08:51:41.974Z,583.95
2024-02-21T08:54:09.010Z,582.00
2024-02-21T08:56:36.266Z,585.60
2024-02-21T08:59:03.097Z,582.67
2024-02-21T09:01:30.082Z,611.33
2024-02-21T09:03:57.861Z,612.58
2024-02-21T09:06:24.348Z,587.45
2024-02-21T09:08:50.756Z,593.25
2024-02-21T09:11:17.328Z,591.78
2024-02-21T09:13:43.936Z,608.20
2024-02-21T09:16:10.529Z,587.60
2024-02-21T09:18:37.110Z,611.88
2024-02-21T09:21:04.034Z,593.60
2024-02-21T09:23:30.479Z,599.80
2024-02-21T09:25:57.256Z,597.78
2024-02-21T09:28:23.889Z,603.08
2024-02-21T09:30:50.438Z,619.80
2024-02-21T09:33:26.990Z,603.30
2024-02-21T09:35:58.574Z,604.20
2024-02-21T09:38:25.042Z,622.22
2024-02-21T09:41:05.007Z,626.03
2024-02-21T09:43:32.093Z,603.00
2024-02-21T09:45:59.411Z,597.35
2024-02-21T09:48:30.804Z,602.25
2024-02-21T09:50:58.612Z,598.55
2024-02-21T09:53:25.746Z,621.58
2024-02-21T09:55:52.935Z,604.10
2024-02-21T09:58:19.603Z,621.53
2024-02-21T10:00:46.078Z,625.65
2024-02-21T10:03:12.562Z,598.97
2024-02-21T10:05:39.371Z,599.85
2024-02-21T10:08:06.150Z,606.25
2024-02-21T10:10:45.530Z,605.72
2024-02-21T10:13:12.718Z,601.50
2024-02-21T10:15:39.303Z,624.50
2024-02-21T10:18:05.931Z,606.58
2024-02-21T10:20:32.481Z,603.88
2024-02-21T10:23:03.652Z,605.60
2024-02-21T10:25:31.975Z,609.03
2024-02-21T10:27:58.430Z,600.92
2024-02-21T10:30:24.846Z,623.40
2024-02-21T10:32:55.013Z,604.22
2024-02-21T10:35:29.049Z,607.28
2024-02-21T10:37:57.161Z,602.25
2024-02-21T10:40:27.633Z,608.28
2024-02-21T10:42:57.911Z,603.38
2024-02-21T10:45:27.868Z,601.78
2024-02-21T10:47:56.821Z,609.53
2024-02-21T10:50:26.350Z,607.17
2024-02-21T10:52:57.237Z,607.05
2024-02-21T10:55:36.420Z,632.20
2024-02-21T10:58:03.430Z,611.50
2024-02-21T11:00:31.278Z,605.20
2024-02-21T11:02:58.752Z,612.03
2024-02-21T11:05:25.724Z,630.33
2024-02-21T11:07:52.907Z,611.03
2024-02-21T11:10:26.262Z,614.25
2024-02-21T11:13:09.289Z,613.55
2024-02-21T11:15:35.800Z,632.42
2024-02-21T11:18:02.551Z,614.92
2024-02-21T11:20:39.104Z,612.20
2024-02-21T11:23:06.286Z,616.83
2024-02-21T11:25:35.112Z,615.25
2024-02-21T11:28:02.641Z,610.40
2024-02-21T11:30:31.293Z,609.05
2024-02-21T11:36:26.047Z,613.80
2024-02-21T11:38:53.281Z,610.05
2024-02-21T11:41:19.985Z,607.42
2024-02-21T11:43:46.491Z,597.40
2024-02-21T11:46:13.842Z,607.58
2024-02-21T11:48:41.671Z,602.38
2024-02-21T11:51:08.250Z,587.63
2024-02-21T11:53:38.344Z,593.88
2024-02-21T11:56:10.800Z,595.80
2024-02-21T11:58:37.416Z,619.47
2024-02-21T12:01:05.632Z,596.50
2024-02-21T12:03:32.170Z,600.25
2024-02-21T12:05:59.988Z,601.30
2024-02-21T12:08:26.654Z,605.58
2024-02-21T12:10:53.301Z,601.58
2024-02-21T12:13:23.650Z,597.53
2024-02-21T12:15:50.191Z,598.72
2024-02-21T12:18:16.834Z,614.33
2024-02-21T12:20:43.535Z,591.83
2024-02-21T12:23:11.331Z,589.70
2024-02-21T12:25:37.877Z,594.78
2024-02-21T12:28:05.030Z,592.55
2024-02-21T12:30:34.068Z,593.97
2024-02-21T12:33:02.680Z,614.75
2024-02-21T12:35:29.188Z,594.10
2024-02-21T12:37:55.719Z,600.20
2024-02-21T12:40:22.465Z,622.72
2024-02-21T12:42:49.337Z,602.40
2024-02-21T12:45:16.955Z,603.65
2024-02-21T12:47:43.677Z,607.35
2024-02-21T12:50:10.569Z,605.60
2024-02-21T12:52:37.226Z,605.40
2024-02-21T12:55:03.956Z,606.63
2024-02-21T12:57:30.376Z,604.00
2024-02-21T12:59:56.809Z,628.75
2024-02-21T13:02:23.411Z,607.33
2024-02-21T13:04:50.223Z,630.08
2024-02-21T13:07:16.783Z,616.03
2024-02-21T13:09:43.202Z,612.42
2024-02-21T13:12:09.740Z,641.33
2024-02-21T13:14:40.059Z,641.50
2024-02-21T13:17:07.109Z,612.00
2024-02-21T13:19:33.750Z,610.17
2024-02-21T13:22:00.332Z,613.30
2024-02-21T13:24:26.819Z,608.53
2024-02-21T13:26:53.195Z,613.97
2024-02-21T13:29:19.650Z,613.80
2024-02-21T13:31:46.458Z,629.22
2024-02-21T13:34:12.997Z,624.65
2024-02-21T13:36:39.380Z,627.90
2024-02-21T13:39:06.091Z,629.63
2024-02-21T13:41:32.890Z,604.08
2024-02-21T13:44:01.491Z,608.15
2024-02-21T13:46:28.180Z,607.70
2024-02-21T13:49:02.380Z,630.85
2024-02-21T13:51:28.859Z,629.47
2024-02-21T13:53:58.364Z,632.63
2024-02-21T13:56:24.750Z,445.55
2024-02-21T13:58:51.400Z,434.02
2024-02-21T14:01:17.913Z,427.90
2024-02-21T14:03:44.433Z,425.50
2024-02-21T14:06:11.056Z,422.65
2024-02-21T14:08:38.788Z,432.83
2024-02-21T14:11:05.323Z,429.90
2024-02-21T14:13:31.831Z,436.75
2024-02-21T14:15:58.350Z,448.98
2024-02-21T14:18:24.830Z,468.00
2024-02-21T14:20:51.398Z,635.40
2024-02-21T14:23:18.023Z,631.85
2024-02-21T14:25:45.120Z,635.50
2024-02-21T14:28:11.850Z,641.13
2024-02-21T14:30:38.288Z,608.58
2024-02-21T14:33:04.951Z,608.40
2024-02-21T14:35:31.567Z,626.30
2024-02-21T14:37:58.932Z,603.85
2024-02-21T14:40:25.554Z,600.15
2024-02-21T14:42:53.569Z,598.83
2024-02-21T14:45:20.003Z,609.63
2024-02-21T14:47:46.626Z,606.95
2024-02-21T14:50:13.143Z,628.38
2024-02-21T14:52:39.758Z,608.47
2024-02-21T14:55:06.865Z,611.03
2024-02-21T14:57:33.343Z,613.22
2024-02-21T15:00:00.804Z,611.67
2024-02-21T15:02:30.222Z,611.67
2024-02-21T15:04:57.148Z,606.65
2024-02-21T15:07:26.287Z,603.28
2024-02-21T15:09:53.336Z,605.38
2024-02-21T15:12:19.832Z,627.58
2024-02-21T15:14:46.331Z,609.83
2024-02-21T15:17:14.004Z,612.20
2024-02-21T15:19:44.700Z,607.80
2024-02-21T15:22:14.854Z,624.97
2024-02-21T15:24:41.952Z,605.13
2024-02-21T15:27:10.558Z,599.08
2024-02-21T15:29:39.741Z,604.40
2024-02-21T15:32:06.547Z,603.92
2024-02-21T15:34:33.329Z,599.65
2024-02-21T15:37:00.825Z,592.78
2024-02-21T15:39:28.150Z,612.47
2024-02-21T15:41:58.023Z,592.67
2024-02-21T15:44:24.749Z,594.85
2024-02-21T15:46:53.031Z,593.13
2024-02-21T15:49:19.653Z,614.38
2024-02-21T15:51:46.244Z,590.95
2024-02-21T15:54:13.714Z,616.63
2024-02-21T15:56:40.946Z,589.35
2024-02-21T15:59:07.425Z,588.40
2024-02-21T16:01:36.254Z,591.78
2024-02-21T16:04:03.018Z,589.55
2024-02-21T16:06:29.556Z,588.42
2024-02-21T16:08:56.027Z,584.05
2024-02-21T16:11:22.685Z,586.45
2024-02-21T16:13:50.634Z,585.20
2024-02-21T16:16:17.620Z,584.95
2024-02-21T16:18:44.568Z,583.08
2024-02-21T16:21:11.876Z,581.50
2024-02-21T16:23:38.297Z,606.40
2024-02-21T16:26:04.866Z,583.20
2024-02-21T16:28:31.344Z,588.25
2024-02-21T16:30:59.093Z,581.03
2024-02-21T16:33:28.619Z,578.10
2024-02-21T16:35:56.091Z,576.83
2024-02-21T16:38:22.649Z,578.33
2024-02-21T16:40:49.917Z,578.90
2024-02-21T16:43:16.413Z,595.33
2024-02-21T16:45:42.812Z,574.65
2024-02-21T16:48:09.487Z,576.38
2024-02-21T16:50:45.560Z,574.72
2024-02-21T16:53:19.574Z,576.97
2024-02-21T16:55:46.057Z,577.50
2024-02-21T16:58:12.602Z,581.67
2024-02-21T17:00:40.438Z,578.78
2024-02-21T17:03:07.294Z,580.83
2024-02-21T17:05:34.102Z,584.65
2024-02-21T17:08:00.749Z,581.60
2024-02-21T17:10:27.260Z,581.13
2024-02-21T17:12:53.724Z,579.67
2024-02-21T17:15:20.139Z,595.38
2024-02-21T17:17:46.675Z,576.05
2024-02-21T17:20:14.473Z,576.90
2024-02-21T17:22:40.936Z,582.10
2024-02-21T17:25:11.778Z,573.35
2024-02-21T17:27:38.583Z,579.92
2024-02-21T17:30:05.627Z,598.85
2024-02-21T17:32:32.028Z,568.05
2024-02-21T17:34:58.549Z,561.10
2024-02-21T17:37:25.039Z,562.10
2024-02-21T17:39:51.476Z,566.08
2024-02-21T17:42:17.870Z,555.67
2024-02-21T17:44:46.608Z,561.05
2024-02-21T17:47:15.814Z,553.28
2024-02-21T17:49:46.628Z,572.63
2024-02-21T17:52:15.097Z,548.85
2024-02-21T17:54:45.274Z,556.50
2024-02-21T17:57:11.875Z,492.85
2024-02-21T17:59:42.689Z,548.58
2024-02-21T18:02:09.212Z,550.05
2024-02-21T18:04:36.158Z,539.22
2024-02-21T18:07:04.152Z,567.45
2024-02-21T18:09:32.041Z,538.28
2024-02-21T18:11:59.299Z,565.80
2024-02-21T18:14:27.898Z,545.83
2024-02-21T18:16:54.399Z,497.00
2024-02-21T18:19:21.210Z,526.65
2024-02-21T18:21:47.657Z,529.70
2024-02-21T18:24:14.073Z,526.72
2024-02-21T18:26:42.352Z,539.22
2024-02-21T18:29:10.311Z,530.47
2024-02-21T18:31:37.578Z,466.95
2024-02-21T18:34:04.495Z,464.77
2024-02-21T18:36:31.141Z,462.65
2024-02-21T18:38:57.567Z,459.50
2024-02-21T18:41:27.290Z,462.25
2024-02-21T18:43:54.299Z,459.67
2024-02-21T18:46:20.798Z,452.75
2024-02-21T18:48:47.303Z,431.52
2024-02-21T18:51:17.539Z,445.85
2024-02-21T18:53:44.083Z,435.23
2024-02-21T18:56:10.555Z,430.27
2024-02-21T18:58:37.066Z,421.90
2024-02-21T19:01:04.638Z,419.15
2024-02-21T19:03:31.394Z,420.60
2024-02-21T19:05:58.067Z,423.52
2024-02-21T19:08:24.571Z,421.05
2024-02-21T19:10:51.083Z,420.50
2024-02-21T19:13:17.537Z,421.80
2024-02-21T19:15:43.940Z,421.77
2024-02-21T19:18:10.452Z,428.10
2024-02-21T19:20:37.024Z,421.98
2024-02-21T19:23:04.843Z,425.05
2024-02-21T19:25:31.363Z,430.85
2024-02-21T19:27:57.933Z,419.40
2024-02-21T19:30:24.544Z,410.10
2024-02-21T19:32:50.978Z,410.42
2024-02-21T19:35:17.521Z,429.38
2024-02-21T19:37:44.014Z,413.77
2024-02-21T19:40:10.683Z,412.67
2024-02-21T19:42:38.686Z,412.33
2024-02-21T19:45:05.696Z,428.38
2024-02-21T19:47:32.148Z,408.95
2024-02-21T19:49:58.832Z,407.85
2024-02-21T19:52:25.371Z,409.42
2024-02-21T19:54:53.833Z,411.50
2024-02-21T19:57:20.381Z,410.55
2024-02-21T19:59:46.784Z,429.90
2024-02-21T20:02:13.361Z,415.15
2024-02-21T20:04:39.901Z,432.42
2024-02-21T20:07:06.832Z,427.73
2024-02-21T20:09:33.255Z,411.58
2024-02-21T20:12:00.724Z,429.10
2024-02-21T20:14:27.336Z,410.00
2024-02-21T20:16:54.262Z,411.08
2024-02-21T20:19:20.800Z,411.20
2024-02-21T20:21:48.154Z,413.27
2024-02-21T20:24:27.609Z,410.52
2024-02-21T20:31:53.755Z,432.35
2024-02-21T20:34:20.260Z,413.20
2024-02-21T20:36:46.691Z,416.60
2024-02-21T20:39:13.881Z,412.20
2024-02-21T20:41:40.693Z,415.23
2024-02-21T20:44:07.323Z,414.90
2024-02-21T20:46:36.725Z,438.58
2024-02-21T20:49:03.197Z,418.55
2024-02-21T20:51:29.653Z,413.75
2024-02-21T20:53:56.120Z,415.25
2024-02-21T20:56:22.811Z,429.88
2024-02-21T20:58:49.370Z,414.77
2024-02-21T21:01:16.042Z,414.67
2024-02-21T21:03:42.525Z,418.23
2024-02-21T21:06:08.966Z,428.40
2024-02-21T21:08:35.358Z,411.40
2024-02-21T21:11:01.951Z,412.13
2024-02-21T21:13:34.289Z,414.95
2024-02-21T21:16:02.342Z,435.60
2024-02-21T21:18:31.248Z,418.92
2024-02-21T21:20:58.591Z,416.85
2024-02-21T21:23:25.343Z,414.90
2024-02-21T21:25:52.221Z,427.75
2024-02-21T21:28:18.705Z,408.55
2024-02-21T21:30:45.516Z,412.33
2024-02-21T21:33:12.032Z,425.63
2024-02-21T21:35:39.272Z,405.23
2024-02-21T21:38:06.114Z,407.05
2024-02-21T21:40:32.879Z,413.08
2024-02-21T21:43:02.980Z,408.80
2024-02-21T21:45:29.369Z,413.55
2024-02-21T21:47:55.870Z,408.33
2024-02-21T21:50:23.836Z,411.83
2024-02-21T21:52:50.324Z,408.35
2024-02-21T21:55:16.877Z,411.52
2024-02-21T21:57:45.106Z,432.38
2024-02-21T22:00:12.230Z,417.52
2024-02-21T22:02:39.107Z,431.95
2024-02-21T22:05:05.848Z,414.33
2024-02-21T22:07:32.225Z,413.38
2024-02-21T22:09:58.616Z,413.38
2024-02-21T22:12:25.122Z,407.02
2024-02-21T22:14:51.499Z,409.58
2024-02-21T22:17:20.180Z,409.13
2024-02-21T22:19:46.900Z,408.58
2024-02-21T22:22:13.443Z,425.95
2024-02-21T22:24:39.855Z,408.73
2024-02-21T22:27:07.031Z,426.48
2024-02-21T22:29:34.354Z,423.42
2024-02-21T22:32:00.935Z,411.30
2024-02-21T22:34:27.607Z,408.02
2024-02-21T22:36:54.481Z,410.13
2024-02-21T22:39:22.473Z,410.75
2024-02-21T22:41:48.853Z,414.35
2024-02-21T22:44:15.413Z,415.17
2024-02-21T22:46:42.113Z,431.65
2024-02-21T22:49:08.543Z,411.23
2024-02-21T22:51:35.035Z,413.95
2024-02-21T22:54:01.532Z,413.27
2024-02-21T22:56:27.941Z,413.35
2024-02-21T22:58:56.059Z,411.67
2024-02-21T23:01:22.537Z,411.80
2024-02-21T23:03:49.121Z,413.38
2024-02-21T23:06:16.053Z,415.73
2024-02-21T23:08:42.448Z,419.23
2024-02-21T23:11:09.140Z,433.85
2024-02-21T23:13:36.231Z,412.83
2024-02-21T23:16:03.204Z,434.40
2024-02-21T23:18:30.208Z,428.65
2024-02-21T23:20:56.981Z,413.40
2024-02-21T23:23:23.380Z,435.60
2024-02-21T23:25:50.274Z,419.00
2024-02-21T23:28:16.715Z,417.90
2024-02-21T23:30:43.145Z,434.77
2024-02-21T23:33:09.600Z,421.35
2024-02-21T23:35:39.141Z,424.55
2024-02-21T23:38:08.244Z,423.60
2024-02-21T23:40:34.773Z,451.85
2024-02-21T23:43:02.079Z,431.98
2024-02-21T23:45:28.590Z,429.90
2024-02-21T23:47:55.209Z,450.30
2024-02-21T23:50:22.212Z,424.88
2024-02-21T23:52:49.657Z,430.02
2024-02-21T23:55:16.092Z,426.27
2024-02-21T23:57:42.503Z,428.92
